sensor_id;sensor_type;location;lat;lon;timestamp;temperature;humidity
42617;DHT22;28250;52.320;0.360;2023-03-11T00:01:06;-1.20;99.90
42617;DHT22;28250;52.320;0.360;2023-03-11T00:03:52;-1.30;99.90
42617;DHT22;28250;52.320;0.360;2023-03-11T00:06:34;-1.30;99.90
42617;DHT22;28250;52.320;0.360;2023-03-11T00:09:20;-1.40;99.90
42617;DHT22;28250;52.320;0.360;2023-03-11T00:12:06;-1.30;99.90
42617;DHT22;28250;52.320;0.360;2023-03-11T00:14:59;-1.40;99.90
42617;DHT22;28250;52.320;0.360;2023-03-11T00:17:32;-1.20;99.90
42617;DHT22;28250;52.320;0.360;2023-03-11T00:20:34;-1.20;99.90
42617;DHT22;28250;52.320;0.360;2023-03-11T00:23:08;-1.10;99.90
42617;DHT22;28250;52.320;0.360;2023-03-11T00:26:02;-1.20;99.90
42617;DHT22;28250;52.320;0.360;2023-03-11T00:28:35;-1.20;99.90
42617;DHT22;28250;52.320;0.360;2023-03-11T00:31:27;-1.30;99.90
42617;DHT22;28250;52.320;0.360;2023-03-11T00:34:00;-1.30;99.90
42617;DHT22;28250;52.320;0.360;2023-03-11T00:36:52;-1.30;99.90
42617;DHT22;28250;52.320;0.360;2023-03-11T00:39:25;-1.30;99.90
42617;DHT22;28250;52.320;0.360;2023-03-11T00:42:17;-1.30;99.90
42617;DHT22;28250;52.320;0.360;2023-03-11T00:44:50;-1.30;99.90
42617;DHT22;28250;52.320;0.360;2023-03-11T00:47:42;-1.30;99.90
42617;DHT22;28250;52.320;0.360;2023-03-11T00:50:19;-1.30;99.90
42617;DHT22;28250;52.320;0.360;2023-03-11T00:53:14;-1.20;99.90
42617;DHT22;28250;52.320;0.360;2023-03-11T00:55:47;-1.30;99.90
42617;DHT22;28250;52.320;0.360;2023-03-11T00:58:39;-1.30;99.90
42617;DHT22;28250;52.320;0.360;2023-03-11T01:01:14;-1.30;99.90
42617;DHT22;28250;52.320;0.360;2023-03-11T01:04:09;-1.40;99.90
42617;DHT22;28250;52.320;0.360;2023-03-11T01:06:44;-1.40;99.90
42617;DHT22;28250;52.320;0.360;2023-03-11T01:09:37;-1.30;99.90
42617;DHT22;28250;52.320;0.360;2023-03-11T01:12:23;-1.30;99.90
42617;DHT22;28250;52.320;0.360;2023-03-11T01:15:18;-1.40;99.90
42617;DHT22;28250;52.320;0.360;2023-03-11T01:17:53;-1.40;99.90
42617;DHT22;28250;52.320;0.360;2023-03-11T01:20:45;-1.50;99.90
42617;DHT22;28250;52.320;0.360;2023-03-11T01:23:19;-1.40;99.90
42617;DHT22;28250;52.320;0.360;2023-03-11T01:26:12;-1.50;99.90
42617;DHT22;28250;52.320;0.360;2023-03-11T01:28:53;-1.60;99.90
42617;DHT22;28250;52.320;0.360;2023-03-11T01:31:38;-1.60;99.90
42617;DHT22;28250;52.320;0.360;2023-03-11T01:34:17;-1.70;99.90
42617;DHT22;28250;52.320;0.360;2023-03-11T01:37:03;-1.70;99.90
42617;DHT22;28250;52.320;0.360;2023-03-11T01:39:42;-1.80;99.90
42617;DHT22;28250;52.320;0.360;2023-03-11T01:42:28;-1.80;99.90
42617;DHT22;28250;52.320;0.360;2023-03-11T01:46:06;-1.80;99.90
42617;DHT22;28250;52.320;0.360;2023-03-11T01:48:27;-1.80;99.90
42617;DHT22;28250;52.320;0.360;2023-03-11T01:51:07;-1.90;99.90
42617;DHT22;28250;52.320;0.360;2023-03-11T01:53:53;-1.90;99.90
42617;DHT22;28250;52.320;0.360;2023-03-11T01:56:35;-1.80;99.90
42617;DHT22;28250;52.320;0.360;2023-03-11T01:59:22;-1.80;99.90
42617;DHT22;28250;52.320;0.360;2023-03-11T02:02:05;-1.80;99.90
42617;DHT22;28250;52.320;0.360;2023-03-11T02:04:53;-1.80;99.90
42617;DHT22;28250;52.320;0.360;2023-03-11T02:07:33;-1.90;99.90
42617;DHT22;28250;52.320;0.360;2023-03-11T02:10:21;-1.90;99.90
42617;DHT22;28250;52.320;0.360;2023-03-11T02:13:07;-1.90;99.90
42617;DHT22;28250;52.320;0.360;2023-03-11T02:16:01;-1.90;99.90
42617;DHT22;28250;52.320;0.360;2023-03-11T02:18:34;-1.90;99.90
42617;DHT22;28250;52.320;0.360;2023-03-11T02:21:29;-1.90;99.90
42617;DHT22;28250;52.320;0.360;2023-03-11T02:27:13;-1.90;99.90
42617;DHT22;28250;52.320;0.360;2023-03-11T02:29:56;-2.00;99.90
42617;DHT22;28250;52.320;0.360;2023-03-11T02:32:44;-1.90;99.90
42617;DHT22;28250;52.320;0.360;2023-03-11T02:35:28;-2.00;99.90
42617;DHT22;28250;52.320;0.360;2023-03-11T02:38:13;-2.10;99.90
42617;DHT22;28250;52.320;0.360;2023-03-11T02:40:53;-2.20;99.90
42617;DHT22;28250;52.320;0.360;2023-03-11T02:43:40;-2.20;99.90
42617;DHT22;28250;52.320;0.360;2023-03-11T02:46:23;-2.30;99.90
42617;DHT22;28250;52.320;0.360;2023-03-11T02:49:09;-2.30;99.90
42617;DHT22;28250;52.320;0.360;2023-03-11T02:51:50;-2.40;99.90
42617;DHT22;28250;52.320;0.360;2023-03-11T02:54:35;-2.40;99.90
42617;DHT22;28250;52.320;0.360;2023-03-11T02:57:15;-2.30;99.90
42617;DHT22;28250;52.320;0.360;2023-03-11T03:00:00;-2.30;99.90
42617;DHT22;28250;52.320;0.360;2023-03-11T03:02:50;-2.30;99.90
42617;DHT22;28250;52.320;0.360;2023-03-11T03:05:35;-2.40;99.90
42617;DHT22;28250;52.320;0.360;2023-03-11T03:08:15;-2.40;99.90
42617;DHT22;28250;52.320;0.360;2023-03-11T03:11:00;-2.40;99.90
42617;DHT22;28250;52.320;0.360;2023-03-11T03:13:47;-2.40;99.90
42617;DHT22;28250;52.320;0.360;2023-03-11T03:16:40;-2.40;99.90
42617;DHT22;28250;52.320;0.360;2023-03-11T03:19:20;-2.50;99.90
42617;DHT22;28250;52.320;0.360;2023-03-11T03:22:05;-2.40;99.90
42617;DHT22;28250;52.320;0.360;2023-03-11T03:24:46;-2.50;99.90
42617;DHT22;28250;52.320;0.360;2023-03-11T03:27:32;-2.40;99.90
42617;DHT22;28250;52.320;0.360;2023-03-11T03:30:13;-2.40;99.90
42617;DHT22;28250;52.320;0.360;2023-03-11T03:32:59;-2.50;99.90
42617;DHT22;28250;52.320;0.360;2023-03-11T03:35:42;-2.50;99.90
42617;DHT22;28250;52.320;0.360;2023-03-11T03:38:32;-2.50;99.90
42617;DHT22;28250;52.320;0.360;2023-03-11T03:41:12;-2.50;99.90
42617;DHT22;28250;52.320;0.360;2023-03-11T03:43:58;-2.70;99.90
42617;DHT22;28250;52.320;0.360;2023-03-11T03:46:40;-2.70;99.90
42617;DHT22;28250;52.320;0.360;2023-03-11T03:49:25;-2.70;99.90
42617;DHT22;28250;52.320;0.360;2023-03-11T03:52:05;-2.60;99.90
42617;DHT22;28250;52.320;0.360;2023-03-11T03:54:51;-2.60;99.90
42617;DHT22;28250;52.320;0.360;2023-03-11T03:57:31;-2.60;99.90
42617;DHT22;28250;52.320;0.360;2023-03-11T04:00:18;-2.80;99.90
42617;DHT22;28250;52.320;0.360;2023-03-11T04:03:03;-2.70;99.90
42617;DHT22;28250;52.320;0.360;2023-03-11T04:06:16;-2.60;99.90
42617;DHT22;28250;52.320;0.360;2023-03-11T04:09:01;-2.70;99.90
42617;DHT22;28250;52.320;0.360;2023-03-11T04:11:47;-2.80;99.90
42617;DHT22;28250;52.320;0.360;2023-03-11T04:14:40;-2.80;99.90
42617;DHT22;28250;52.320;0.360;2023-03-11T04:17:13;-2.90;99.90
42617;DHT22;28250;52.320;0.360;2023-03-11T04:20:07;-3.00;99.90
42617;DHT22;28250;52.320;0.360;2023-03-11T04:22:44;-3.10;99.90
42617;DHT22;28250;52.320;0.360;2023-03-11T04:25:37;-2.90;99.90
42617;DHT22;28250;52.320;0.360;2023-03-11T04:28:10;-2.90;99.90
42617;DHT22;28250;52.320;0.360;2023-03-11T04:31:03;-2.80;99.90
42617;DHT22;28250;52.320;0.360;2023-03-11T04:33:36;-2.80;99.90
42617;DHT22;28250;52.320;0.360;2023-03-11T04:36:28;-2.80;99.90
42617;DHT22;28250;52.320;0.360;2023-03-11T04:39:01;-2.90;99.90
42617;DHT22;28250;52.320;0.360;2023-03-11T04:41:55;-3.00;99.90
42617;DHT22;28250;52.320;0.360;2023-03-11T04:44:28;-3.00;99.90
42617;DHT22;28250;52.320;0.360;2023-03-11T04:47:20;-3.00;99.90
42617;DHT22;28250;52.320;0.360;2023-03-11T04:49:53;-3.00;99.90
42617;DHT22;28250;52.320;0.360;2023-03-11T04:52:46;-3.10;99.90
42617;DHT22;28250;52.320;0.360;2023-03-11T04:55:19;-3.10;99.90
42617;DHT22;28250;52.320;0.360;2023-03-11T04:58:12;-3.10;99.90
42617;DHT22;28250;52.320;0.360;2023-03-11T05:00:46;-3.20;99.90
42617;DHT22;28250;52.320;0.360;2023-03-11T05:03:38;-3.10;99.90
42617;DHT22;28250;52.320;0.360;2023-03-11T05:06:11;-3.20;99.90
42617;DHT22;28250;52.320;0.360;2023-03-11T05:09:04;-3.10;99.90
42617;DHT22;28250;52.320;0.360;2023-03-11T05:11:40;-3.00;99.90
42617;DHT22;28250;52.320;0.360;2023-03-11T05:14:36;-3.00;99.90
42617;DHT22;28250;52.320;0.360;2023-03-11T05:17:09;-2.90;99.90
42617;DHT22;28250;52.320;0.360;2023-03-11T05:20:05;-2.90;99.90
42617;DHT22;28250;52.320;0.360;2023-03-11T05:22:39;-2.90;99.90
42617;DHT22;28250;52.320;0.360;2023-03-11T05:25:31;-2.80;99.90
42617;DHT22;28250;52.320;0.360;2023-03-11T05:28:04;-2.80;99.90
42617;DHT22;28250;52.320;0.360;2023-03-11T05:31:01;-2.80;99.90
42617;DHT22;28250;52.320;0.360;2023-03-11T05:33:35;-2.70;99.90
42617;DHT22;28250;52.320;0.360;2023-03-11T05:36:28;-2.70;99.90
42617;DHT22;28250;52.320;0.360;2023-03-11T05:39:08;-2.60;99.90
42617;DHT22;28250;52.320;0.360;2023-03-11T05:41:54;-2.70;99.90
42617;DHT22;28250;52.320;0.360;2023-03-11T05:44:34;-2.50;99.90
42617;DHT22;28250;52.320;0.360;2023-03-11T05:47:19;-2.60;99.90
42617;DHT22;28250;52.320;0.360;2023-03-11T05:50:00;-2.60;99.90
42617;DHT22;28250;52.320;0.360;2023-03-11T05:52:47;-2.60;99.90
42617;DHT22;28250;52.320;0.360;2023-03-11T05:55:28;-2.70;99.90
42617;DHT22;28250;52.320;0.360;2023-03-11T05:58:13;-2.70;99.90
42617;DHT22;28250;52.320;0.360;2023-03-11T06:00:54;-2.60;99.90
42617;DHT22;28250;52.320;0.360;2023-03-11T06:03:39;-2.60;99.90
42617;DHT22;28250;52.320;0.360;2023-03-11T06:06:19;-2.50;99.90
42617;DHT22;28250;52.320;0.360;2023-03-11T06:09:06;-2.40;99.90
42617;DHT22;28250;52.320;0.360;2023-03-11T06:11:53;-2.50;99.90
42617;DHT22;28250;52.320;0.360;2023-03-11T06:15:00;-2.40;99.90
42617;DHT22;28250;52.320;0.360;2023-03-11T06:17:34;-2.40;99.90
42617;DHT22;28250;52.320;0.360;2023-03-11T06:20:28;-2.50;99.90
42617;DHT22;28250;52.320;0.360;2023-03-11T06:23:00;-2.40;99.90
42617;DHT22;28250;52.320;0.360;2023-03-11T06:28:37;-2.40;99.90
42617;DHT22;28250;52.320;0.360;2023-03-11T06:31:26;-2.40;99.90
42617;DHT22;28250;52.320;0.360;2023-03-11T06:34:12;-2.30;99.90
42617;DHT22;28250;52.320;0.360;2023-03-11T06:36:57;-2.30;99.90
42617;DHT22;28250;52.320;0.360;2023-03-11T06:39:38;-2.30;99.90
42617;DHT22;28250;52.320;0.360;2023-03-11T06:42:25;-2.20;99.90
42617;DHT22;28250;52.320;0.360;2023-03-11T06:45:05;-2.30;99.90
42617;DHT22;28250;52.320;0.360;2023-03-11T06:47:52;-2.30;99.90
42617;DHT22;28250;52.320;0.360;2023-03-11T06:50:32;-2.20;99.90
42617;DHT22;28250;52.320;0.360;2023-03-11T06:53:18;-2.20;99.90
42617;DHT22;28250;52.320;0.360;2023-03-11T06:56:02;-2.20;99.90
42617;DHT22;28250;52.320;0.360;2023-03-11T06:58:57;-2.20;99.90
42617;DHT22;28250;52.320;0.360;2023-03-11T07:01:45;-2.10;99.90
42617;DHT22;28250;52.320;0.360;2023-03-11T07:04:38;-2.00;99.90
42617;DHT22;28250;52.320;0.360;2023-03-11T07:07:11;-1.90;99.90
42617;DHT22;28250;52.320;0.360;2023-03-11T07:10:05;-2.00;99.90
42617;DHT22;28250;52.320;0.360;2023-03-11T07:12:37;-1.90;99.90
42617;DHT22;28250;52.320;0.360;2023-03-11T07:15:29;-1.90;99.90
42617;DHT22;28250;52.320;0.360;2023-03-11T07:18:08;-1.80;99.90
42617;DHT22;28250;52.320;0.360;2023-03-11T07:21:02;-1.70;99.90
42617;DHT22;28250;52.320;0.360;2023-03-11T07:23:36;-1.70;99.90
42617;DHT22;28250;52.320;0.360;2023-03-11T07:26:29;-1.70;99.90
42617;DHT22;28250;52.320;0.360;2023-03-11T07:29:23;-1.50;99.90
42617;DHT22;28250;52.320;0.360;2023-03-11T07:31:56;-1.40;99.90
42617;DHT22;28250;52.320;0.360;2023-03-11T07:34:48;-1.40;99.90
42617;DHT22;28250;52.320;0.360;2023-03-11T07:37:21;-1.30;99.90
42617;DHT22;28250;52.320;0.360;2023-03-11T07:40:13;-1.30;99.90
42617;DHT22;28250;52.320;0.360;2023-03-11T07:42:47;-1.20;99.90
42617;DHT22;28250;52.320;0.360;2023-03-11T07:45:40;-1.20;99.90
42617;DHT22;28250;52.320;0.360;2023-03-11T07:48:13;-1.10;99.90
42617;DHT22;28250;52.320;0.360;2023-03-11T07:51:07;-1.10;99.90
42617;DHT22;28250;52.320;0.360;2023-03-11T07:53:45;-1.00;99.90
42617;DHT22;28250;52.320;0.360;2023-03-11T07:56:38;-0.90;99.90
42617;DHT22;28250;52.320;0.360;2023-03-11T07:59:11;-0.90;99.90
42617;DHT22;28250;52.320;0.360;2023-03-11T08:02:03;-0.80;99.90
42617;DHT22;28250;52.320;0.360;2023-03-11T08:04:36;-0.80;99.90
42617;DHT22;28250;52.320;0.360;2023-03-11T08:07:30;-0.70;99.90
42617;DHT22;28250;52.320;0.360;2023-03-11T08:10:03;-0.60;99.90
42617;DHT22;28250;52.320;0.360;2023-03-11T08:12:56;-0.50;99.90
42617;DHT22;28250;52.320;0.360;2023-03-11T08:15:49;-0.40;99.90
42617;DHT22;28250;52.320;0.360;2023-03-11T08:18:22;-0.30;99.90
42617;DHT22;28250;52.320;0.360;2023-03-11T08:21:16;-0.20;99.90
42617;DHT22;28250;52.320;0.360;2023-03-11T08:23:49;-0.10;99.90
42617;DHT22;28250;52.320;0.360;2023-03-11T08:26:42;0.00;99.90
42617;DHT22;28250;52.320;0.360;2023-03-11T08:29:15;0.00;99.90
42617;DHT22;28250;52.320;0.360;2023-03-11T08:32:07;0.00;99.90
42617;DHT22;28250;52.320;0.360;2023-03-11T08:34:40;0.00;99.90
42617;DHT22;28250;52.320;0.360;2023-03-11T08:37:32;0.10;99.90
42617;DHT22;28250;52.320;0.360;2023-03-11T08:40:05;0.20;99.90
42617;DHT22;28250;52.320;0.360;2023-03-11T08:42:58;0.10;99.90
42617;DHT22;28250;52.320;0.360;2023-03-11T08:45:31;0.10;99.90
42617;DHT22;28250;52.320;0.360;2023-03-11T08:48:24;0.30;99.90
42617;DHT22;28250;52.320;0.360;2023-03-11T08:50:56;0.30;99.90
42617;DHT22;28250;52.320;0.360;2023-03-11T08:53:49;0.50;99.90
42617;DHT22;28250;52.320;0.360;2023-03-11T08:56:21;0.50;99.90
42617;DHT22;28250;52.320;0.360;2023-03-11T08:59:14;0.50;99.90
42617;DHT22;28250;52.320;0.360;2023-03-11T09:01:46;0.60;99.90
42617;DHT22;28250;52.320;0.360;2023-03-11T09:04:38;0.60;99.90
42617;DHT22;28250;52.320;0.360;2023-03-11T09:07:11;0.70;99.90
42617;DHT22;28250;52.320;0.360;2023-03-11T09:10:04;1.00;99.90
42617;DHT22;28250;52.320;0.360;2023-03-11T09:12:37;1.10;99.90
42617;DHT22;28250;52.320;0.360;2023-03-11T09:15:30;1.20;99.90
42617;DHT22;28250;52.320;0.360;2023-03-11T09:18:02;1.30;99.90
42617;DHT22;28250;52.320;0.360;2023-03-11T09:20:55;1.60;99.90
42617;DHT22;28250;52.320;0.360;2023-03-11T09:23:29;1.50;99.90
42617;DHT22;28250;52.320;0.360;2023-03-11T09:26:22;1.60;99.90
42617;DHT22;28250;52.320;0.360;2023-03-11T09:29:01;1.70;99.90
42617;DHT22;28250;52.320;0.360;2023-03-11T09:31:47;1.70;99.90
42617;DHT22;28250;52.320;0.360;2023-03-11T09:34:26;1.90;99.90
42617;DHT22;28250;52.320;0.360;2023-03-11T09:37:12;2.30;99.90
42617;DHT22;28250;52.320;0.360;2023-03-11T09:39:51;2.30;99.90
42617;DHT22;28250;52.320;0.360;2023-03-11T09:42:42;2.70;99.90
42617;DHT22;28250;52.320;0.360;2023-03-11T09:45:27;2.90;99.90
42617;DHT22;28250;52.320;0.360;2023-03-11T09:51:21;3.40;99.90
42617;DHT22;28250;52.320;0.360;2023-03-11T09:54:12;3.60;99.90
42617;DHT22;28250;52.320;0.360;2023-03-11T09:56:51;3.80;99.90
42617;DHT22;28250;52.320;0.360;2023-03-11T09:59:38;3.90;99.90
42617;DHT22;28250;52.320;0.360;2023-03-11T10:02:19;4.20;99.90
42617;DHT22;28250;52.320;0.360;2023-03-11T10:05:21;4.30;99.90
42617;DHT22;28250;52.320;0.360;2023-03-11T10:08:03;4.30;99.90
42617;DHT22;28250;52.320;0.360;2023-03-11T10:11:18;4.30;99.90
42617;DHT22;28250;52.320;0.360;2023-03-11T10:20:26;4.80;99.90
42617;DHT22;28250;52.320;0.360;2023-03-11T10:29:20;5.10;99.90
42617;DHT22;28250;52.320;0.360;2023-03-11T10:32:12;5.10;99.90
42617;DHT22;28250;52.320;0.360;2023-03-11T10:37:58;5.40;99.90
42617;DHT22;28250;52.320;0.360;2023-03-11T10:40:50;5.40;99.90
42617;DHT22;28250;52.320;0.360;2023-03-11T10:43:34;5.70;99.90
42617;DHT22;28250;52.320;0.360;2023-03-11T10:46:25;5.90;99.90
42617;DHT22;28250;52.320;0.360;2023-03-11T10:49:12;6.00;99.90
42617;DHT22;28250;52.320;0.360;2023-03-11T10:51:59;6.40;99.90
42617;DHT22;28250;52.320;0.360;2023-03-11T10:54:43;6.80;99.90
42617;DHT22;28250;52.320;0.360;2023-03-11T10:57:34;6.90;99.90
42617;DHT22;28250;52.320;0.360;2023-03-11T11:00:27;6.80;99.90
42617;DHT22;28250;52.320;0.360;2023-03-11T11:03:23;6.60;99.90
42617;DHT22;28250;52.320;0.360;2023-03-11T11:06:03;6.80;99.90
42617;DHT22;28250;52.320;0.360;2023-03-11T11:09:12;7.00;99.90
42617;DHT22;28250;52.320;0.360;2023-03-11T11:14:57;7.00;99.90
42617;DHT22;28250;52.320;0.360;2023-03-11T11:17:31;7.00;99.90
42617;DHT22;28250;52.320;0.360;2023-03-11T11:20:26;7.40;99.90
42617;DHT22;28250;52.320;0.360;2023-03-11T11:23:00;7.30;99.90
42617;DHT22;28250;52.320;0.360;2023-03-11T11:25:55;7.80;99.90
42617;DHT22;28250;52.320;0.360;2023-03-11T11:28:35;7.90;99.90
42617;DHT22;28250;52.320;0.360;2023-03-11T11:31:28;7.70;99.90
42617;DHT22;28250;52.320;0.360;2023-03-11T11:34:00;7.90;99.90
42617;DHT22;28250;52.320;0.360;2023-03-11T11:36:53;7.70;99.90
42617;DHT22;28250;52.320;0.360;2023-03-11T11:39:29;8.60;99.90
42617;DHT22;28250;52.320;0.360;2023-03-11T11:42:24;8.60;99.90
42617;DHT22;28250;52.320;0.360;2023-03-11T11:48:36;8.00;99.90
42617;DHT22;28250;52.320;0.360;2023-03-11T11:51:40;8.00;99.90
42617;DHT22;28250;52.320;0.360;2023-03-11T11:54:41;8.40;99.90
42617;DHT22;28250;52.320;0.360;2023-03-11T11:57:18;8.30;99.90
42617;DHT22;28250;52.320;0.360;2023-03-11T12:00:14;8.30;99.90
42617;DHT22;28250;52.320;0.360;2023-03-11T12:05:51;8.40;99.90
42617;DHT22;28250;52.320;0.360;2023-03-11T12:08:36;8.50;99.90
42617;DHT22;28250;52.320;0.360;2023-03-11T12:11:36;8.40;99.90
42617;DHT22;28250;52.320;0.360;2023-03-11T12:15:13;8.60;99.90
42617;DHT22;28250;52.320;0.360;2023-03-11T12:17:40;8.70;99.90
42617;DHT22;28250;52.320;0.360;2023-03-11T12:20:29;8.90;99.90
42617;DHT22;28250;52.320;0.360;2023-03-11T12:26:19;8.90;99.90
42617;DHT22;28250;52.320;0.360;2023-03-11T12:31:56;8.70;99.90
42617;DHT22;28250;52.320;0.360;2023-03-11T12:34:51;8.70;99.90
42617;DHT22;28250;52.320;0.360;2023-03-11T12:37:24;9.20;99.90
42617;DHT22;28250;52.320;0.360;2023-03-11T12:49:29;9.10;99.90
42617;DHT22;28250;52.320;0.360;2023-03-11T12:52:28;9.00;99.90
42617;DHT22;28250;52.320;0.360;2023-03-11T12:57:56;9.60;99.90
42617;DHT22;28250;52.320;0.360;2023-03-11T13:00:55;9.90;99.90
42617;DHT22;28250;52.320;0.360;2023-03-11T13:12:47;9.60;99.90
42617;DHT22;28250;52.320;0.360;2023-03-11T13:15:42;9.90;99.90
42617;DHT22;28250;52.320;0.360;2023-03-11T13:18:21;9.90;99.90
42617;DHT22;28250;52.320;0.360;2023-03-11T13:27:22;9.40;99.90
42617;DHT22;28250;52.320;0.360;2023-03-11T13:30:06;9.40;99.90
42617;DHT22;28250;52.320;0.360;2023-03-11T13:33:18;9.70;99.90
42617;DHT22;28250;52.320;0.360;2023-03-11T13:36:09;9.40;99.90
42617;DHT22;28250;52.320;0.360;2023-03-11T13:39:22;9.10;99.90
42617;DHT22;28250;52.320;0.360;2023-03-11T13:42:25;9.10;99.90
42617;DHT22;28250;52.320;0.360;2023-03-11T13:45:34;9.50;99.90
42617;DHT22;28250;52.320;0.360;2023-03-11T13:48:13;9.40;99.90
42617;DHT22;28250;52.320;0.360;2023-03-11T13:54:13;9.60;99.90
42617;DHT22;28250;52.320;0.360;2023-03-11T13:57:22;9.40;99.90
42617;DHT22;28250;52.320;0.360;2023-03-11T14:00:02;9.00;99.90
42617;DHT22;28250;52.320;0.360;2023-03-11T14:03:01;9.40;99.90
42617;DHT22;28250;52.320;0.360;2023-03-11T14:05:35;9.70;99.90
42617;DHT22;28250;52.320;0.360;2023-03-11T14:08:30;9.80;99.90
42617;DHT22;28250;52.320;0.360;2023-03-11T14:14:01;9.20;99.90
42617;DHT22;28250;52.320;0.360;2023-03-11T14:16:56;8.90;99.90
42617;DHT22;28250;52.320;0.360;2023-03-11T14:19:29;8.80;99.90
42617;DHT22;28250;52.320;0.360;2023-03-11T14:22:22;8.80;99.90
42617;DHT22;28250;52.320;0.360;2023-03-11T14:24:54;9.10;99.90
42617;DHT22;28250;52.320;0.360;2023-03-11T14:27:52;8.70;99.90
42617;DHT22;28250;52.320;0.360;2023-03-11T14:30:29;9.00;99.90
42617;DHT22;28250;52.320;0.360;2023-03-11T14:33:23;9.20;99.90
42617;DHT22;28250;52.320;0.360;2023-03-11T14:35:59;9.20;99.90
42617;DHT22;28250;52.320;0.360;2023-03-11T14:38:55;8.70;99.90
42617;DHT22;28250;52.320;0.360;2023-03-11T14:41:27;8.80;99.90
42617;DHT22;28250;52.320;0.360;2023-03-11T14:44:20;9.00;99.90
42617;DHT22;28250;52.320;0.360;2023-03-11T14:47:00;8.80;99.90
42617;DHT22;28250;52.320;0.360;2023-03-11T14:50:02;8.50;99.90
42617;DHT22;28250;52.320;0.360;2023-03-11T14:52:38;8.60;99.90
42617;DHT22;28250;52.320;0.360;2023-03-11T14:55:38;8.70;99.90
42617;DHT22;28250;52.320;0.360;2023-03-11T14:58:14;8.60;99.90
42617;DHT22;28250;52.320;0.360;2023-03-11T15:01:27;8.60;99.90
42617;DHT22;28250;52.320;0.360;2023-03-11T15:04:05;8.50;99.90
42617;DHT22;28250;52.320;0.360;2023-03-11T15:07:04;8.30;99.90
42617;DHT22;28250;52.320;0.360;2023-03-11T15:09:38;8.50;99.90
42617;DHT22;28250;52.320;0.360;2023-03-11T15:12:33;8.30;99.90
42617;DHT22;28250;52.320;0.360;2023-03-11T15:15:27;8.40;99.90
42617;DHT22;28250;52.320;0.360;2023-03-11T15:18:21;8.50;99.90
42617;DHT22;28250;52.320;0.360;2023-03-11T15:23:54;8.20;99.90
42617;DHT22;28250;52.320;0.360;2023-03-11T15:29:48;8.40;99.90
42617;DHT22;28250;52.320;0.360;2023-03-11T15:32:39;8.50;99.90
42617;DHT22;28250;52.320;0.360;2023-03-11T15:35:21;8.50;99.90
42617;DHT22;28250;52.320;0.360;2023-03-11T15:38:19;8.20;99.90
42617;DHT22;28250;52.320;0.360;2023-03-11T15:41:02;8.00;99.90
42617;DHT22;28250;52.320;0.360;2023-03-11T15:43:48;7.90;99.90
42617;DHT22;28250;52.320;0.360;2023-03-11T15:46:27;7.90;99.90
42617;DHT22;28250;52.320;0.360;2023-03-11T15:49:13;7.90;99.90
42617;DHT22;28250;52.320;0.360;2023-03-11T15:51:56;7.80;99.90
42617;DHT22;28250;52.320;0.360;2023-03-11T15:54:44;7.60;99.90
42617;DHT22;28250;52.320;0.360;2023-03-11T15:57:25;7.60;99.90
42617;DHT22;28250;52.320;0.360;2023-03-11T16:00:19;7.60;99.90
42617;DHT22;28250;52.320;0.360;2023-03-11T16:03:00;7.70;99.90
42617;DHT22;28250;52.320;0.360;2023-03-11T16:05:45;7.80;99.90
42617;DHT22;28250;52.320;0.360;2023-03-11T16:08:24;8.10;99.90
42617;DHT22;28250;52.320;0.360;2023-03-11T16:11:13;8.00;99.90
42617;DHT22;28250;52.320;0.360;2023-03-11T16:13:53;8.10;99.90
42617;DHT22;28250;52.320;0.360;2023-03-11T16:16:39;7.80;99.90
42617;DHT22;28250;52.320;0.360;2023-03-11T16:19:18;8.00;99.90
42617;DHT22;28250;52.320;0.360;2023-03-11T16:22:04;8.00;99.90
42617;DHT22;28250;52.320;0.360;2023-03-11T16:24:44;7.80;99.90
42617;DHT22;28250;52.320;0.360;2023-03-11T16:27:32;7.70;99.90
42617;DHT22;28250;52.320;0.360;2023-03-11T16:30:12;7.60;99.90
42617;DHT22;28250;52.320;0.360;2023-03-11T16:32:58;7.50;99.90
42617;DHT22;28250;52.320;0.360;2023-03-11T16:35:37;7.30;99.90
42617;DHT22;28250;52.320;0.360;2023-03-11T16:38:23;7.30;99.90
42617;DHT22;28250;52.320;0.360;2023-03-11T16:41:02;7.20;99.90
42617;DHT22;28250;52.320;0.360;2023-03-11T16:43:55;7.00;99.90
42617;DHT22;28250;52.320;0.360;2023-03-11T16:46:28;7.10;99.90
42617;DHT22;28250;52.320;0.360;2023-03-11T16:49:20;7.00;99.90
42617;DHT22;28250;52.320;0.360;2023-03-11T16:51:53;7.00;99.90
42617;DHT22;28250;52.320;0.360;2023-03-11T16:54:45;6.90;99.90
42617;DHT22;28250;52.320;0.360;2023-03-11T16:57:20;6.90;99.90
42617;DHT22;28250;52.320;0.360;2023-03-11T17:00:12;6.90;99.90
42617;DHT22;28250;52.320;0.360;2023-03-11T17:02:52;6.90;99.90
42617;DHT22;28250;52.320;0.360;2023-03-11T17:05:45;6.90;99.90
42617;DHT22;28250;52.320;0.360;2023-03-11T17:08:18;6.70;99.90
42617;DHT22;28250;52.320;0.360;2023-03-11T17:11:14;6.60;99.90
42617;DHT22;28250;52.320;0.360;2023-03-11T17:13:51;6.60;99.90
42617;DHT22;28250;52.320;0.360;2023-03-11T17:16:43;6.50;99.90
42617;DHT22;28250;52.320;0.360;2023-03-11T17:19:16;6.50;99.90
42617;DHT22;28250;52.320;0.360;2023-03-11T17:22:08;6.50;99.90
42617;DHT22;28250;52.320;0.360;2023-03-11T17:24:41;6.40;99.90
42617;DHT22;28250;52.320;0.360;2023-03-11T17:27:33;6.40;99.90
42617;DHT22;28250;52.320;0.360;2023-03-11T17:30:06;6.20;99.90
42617;DHT22;28250;52.320;0.360;2023-03-11T17:32:59;6.20;99.90
42617;DHT22;28250;52.320;0.360;2023-03-11T17:35:32;6.10;99.90
42617;DHT22;28250;52.320;0.360;2023-03-11T17:38:25;6.10;99.90
42617;DHT22;28250;52.320;0.360;2023-03-11T17:40:58;6.00;99.90
42617;DHT22;28250;52.320;0.360;2023-03-11T17:43:50;5.90;99.90
42617;DHT22;28250;52.320;0.360;2023-03-11T17:46:23;5.90;99.90
42617;DHT22;28250;52.320;0.360;2023-03-11T17:49:15;5.80;99.90
42617;DHT22;28250;52.320;0.360;2023-03-11T17:51:48;5.80;99.90
42617;DHT22;28250;52.320;0.360;2023-03-11T17:54:40;5.70;99.90
42617;DHT22;28250;52.320;0.360;2023-03-11T17:57:13;5.60;99.90
42617;DHT22;28250;52.320;0.360;2023-03-11T18:00:05;5.60;99.90
42617;DHT22;28250;52.320;0.360;2023-03-11T18:02:39;5.60;99.90
42617;DHT22;28250;52.320;0.360;2023-03-11T18:05:31;5.50;99.90
42617;DHT22;28250;52.320;0.360;2023-03-11T18:08:04;5.50;99.90
42617;DHT22;28250;52.320;0.360;2023-03-11T18:11:00;5.40;99.90
42617;DHT22;28250;52.320;0.360;2023-03-11T18:13:38;5.40;99.90
42617;DHT22;28250;52.320;0.360;2023-03-11T18:16:31;5.40;99.90
42617;DHT22;28250;52.320;0.360;2023-03-11T18:19:05;5.30;99.90
42617;DHT22;28250;52.320;0.360;2023-03-11T18:21:57;5.30;99.90
42617;DHT22;28250;52.320;0.360;2023-03-11T18:24:30;5.30;99.90
42617;DHT22;28250;52.320;0.360;2023-03-11T18:27:22;5.30;99.90
42617;DHT22;28250;52.320;0.360;2023-03-11T18:29:55;5.30;99.90
42617;DHT22;28250;52.320;0.360;2023-03-11T18:32:47;5.20;99.90
42617;DHT22;28250;52.320;0.360;2023-03-11T18:35:20;5.20;99.90
42617;DHT22;28250;52.320;0.360;2023-03-11T18:38:12;5.20;99.90
42617;DHT22;28250;52.320;0.360;2023-03-11T18:40:45;5.10;99.90
42617;DHT22;28250;52.320;0.360;2023-03-11T18:43:37;5.10;99.90
42617;DHT22;28250;52.320;0.360;2023-03-11T18:46:11;5.10;99.90
42617;DHT22;28250;52.320;0.360;2023-03-11T18:49:05;5.10;99.90
42617;DHT22;28250;52.320;0.360;2023-03-11T18:51:38;5.10;99.90
42617;DHT22;28250;52.320;0.360;2023-03-11T18:54:31;5.10;99.90